sensor_id;sensor_type;location;lat;lon;timestamp;P1;durP1;ratioP1;P2;durP2;ratioP2
30020;SDS011;16861;52.294;7.760;2022-09-27T00:00:29;7.60;;;3.75;;
30020;SDS011;16861;52.294;7.760;2022-09-27T00:02:56;7.18;;;3.70;;
30020;SDS011;16861;52.294;7.760;2022-09-27T00:05:23;8.07;;;3.40;;
30020;SDS011;16861;52.294;7.760;2022-09-27T00:07:49;8.75;;;3.50;;
30020;SDS011;16861;52.294;7.760;2022-09-27T00:10:16;7.63;;;3.65;;
30020;SDS011;16861;52.294;7.760;2022-09-27T00:12:42;8.90;;;3.40;;
30020;SDS011;16861;52.294;7.760;2022-09-27T00:15:09;7.03;;;3.15;;
30020;SDS011;16861;52.294;7.760;2022-09-27T00:17:36;7.57;;;3.25;;
30020;SDS011;16861;52.294;7.760;2022-09-27T00:20:04;5.20;;;2.53;;
30020;SDS011;16861;52.294;7.760;2022-09-27T00:22:32;6.50;;;2.90;;
30020;SDS011;16861;52.294;7.760;2022-09-27T00:24:59;8.60;;;3.30;;
30020;SDS011;16861;52.294;7.760;2022-09-27T00:27:26;5.22;;;2.88;;
30020;SDS011;16861;52.294;7.760;2022-09-27T00:29:53;7.82;;;2.40;;
30020;SDS011;16861;52.294;7.760;2022-09-27T00:32:19;8.32;;;2.63;;
30020;SDS011;16861;52.294;7.760;2022-09-27T00:34:46;6.63;;;2.53;;
30020;SDS011;16861;52.294;7.760;2022-09-27T00:37:12;6.70;;;2.50;;
30020;SDS011;16861;52.294;7.760;2022-09-27T00:39:39;5.63;;;2.40;;
30020;SDS011;16861;52.294;7.760;2022-09-27T00:42:09;4.95;;;2.22;;
30020;SDS011;16861;52.294;7.760;2022-09-27T00:47:14;5.78;;;2.05;;
30020;SDS011;16861;52.294;7.760;2022-09-27T00:49:54;6.13;;;2.63;;
30020;SDS011;16861;52.294;7.760;2022-09-27T00:52:27;5.90;;;2.25;;
30020;SDS011;16861;52.294;7.760;2022-09-27T00:55:00;5.18;;;2.33;;
30020;SDS011;16861;52.294;7.760;2022-09-27T00:57:29;4.43;;;2.30;;
30020;SDS011;16861;52.294;7.760;2022-09-27T01:00:06;5.25;;;1.95;;
30020;SDS011;16861;52.294;7.760;2022-09-27T01:02:37;2.90;;;2.15;;
30020;SDS011;16861;52.294;7.760;2022-09-27T01:05:09;7.13;;;2.38;;
30020;SDS011;16861;52.294;7.760;2022-09-27T01:07:37;6.10;;;2.22;;
30020;SDS011;16861;52.294;7.760;2022-09-27T01:10:04;7.30;;;2.10;;
30020;SDS011;16861;52.294;7.760;2022-09-27T01:18:22;9.30;;;2.40;;
30020;SDS011;16861;52.294;7.760;2022-09-27T01:32:57;6.32;;;2.72;;
30020;SDS011;16861;52.294;7.760;2022-09-27T01:38:14;6.65;;;3.30;;
30020;SDS011;16861;52.294;7.760;2022-09-27T01:40:48;6.97;;;3.33;;
30020;SDS011;16861;52.294;7.760;2022-09-27T01:43:25;10.88;;;2.60;;
30020;SDS011;16861;52.294;7.760;2022-09-27T01:46:12;9.50;;;2.92;;
30020;SDS011;16861;52.294;7.760;2022-09-27T01:48:47;6.82;;;2.58;;
30020;SDS011;16861;52.294;7.760;2022-09-27T01:51:19;7.80;;;2.90;;
30020;SDS011;16861;52.294;7.760;2022-09-27T01:53:53;8.65;;;2.45;;
30020;SDS011;16861;52.294;7.760;2022-09-27T02:01:32;6.25;;;2.30;;
30020;SDS011;16861;52.294;7.760;2022-09-27T02:04:04;5.45;;;1.90;;
30020;SDS011;16861;52.294;7.760;2022-09-27T02:06:34;7.38;;;2.70;;
30020;SDS011;16861;52.294;7.760;2022-09-27T02:09:07;6.32;;;2.20;;
30020;SDS011;16861;52.294;7.760;2022-09-27T02:11:38;11.90;;;2.20;;
30020;SDS011;16861;52.294;7.760;2022-09-27T02:14:14;6.85;;;1.95;;
30020;SDS011;16861;52.294;7.760;2022-09-27T02:16:47;8.05;;;2.10;;
30020;SDS011;16861;52.294;7.760;2022-09-27T02:24:45;6.72;;;1.58;;
30020;SDS011;16861;52.294;7.760;2022-09-27T02:27:23;10.68;;;2.28;;
30020;SDS011;16861;52.294;7.760;2022-09-27T02:30:00;5.47;;;1.67;;
30020;SDS011;16861;52.294;7.760;2022-09-27T02:32:31;5.03;;;1.55;;
30020;SDS011;16861;52.294;7.760;2022-09-27T02:34:59;5.05;;;1.67;;
30020;SDS011;16861;52.294;7.760;2022-09-27T02:37:31;6.50;;;1.48;;
30020;SDS011;16861;52.294;7.760;2022-09-27T02:39:58;4.35;;;1.88;;
30020;SDS011;16861;52.294;7.760;2022-09-27T02:42:25;3.47;;;1.65;;
30020;SDS011;16861;52.294;7.760;2022-09-27T02:44:53;4.57;;;1.50;;
30020;SDS011;16861;52.294;7.760;2022-09-27T02:55:42;4.25;;;1.17;;
30020;SDS011;16861;52.294;7.760;2022-09-27T02:58:33;4.30;;;1.67;;
30020;SDS011;16861;52.294;7.760;2022-09-27T03:04:22;3.47;;;1.55;;
30020;SDS011;16861;52.294;7.760;2022-09-27T03:06:50;3.17;;;1.30;;
30020;SDS011;16861;52.294;7.760;2022-09-27T03:11:46;2.72;;;1.60;;
30020;SDS011;16861;52.294;7.760;2022-09-27T03:14:13;2.97;;;1.77;;
30020;SDS011;16861;52.294;7.760;2022-09-27T03:16:40;5.15;;;2.05;;
30020;SDS011;16861;52.294;7.760;2022-09-27T03:19:07;3.15;;;1.40;;
30020;SDS011;16861;52.294;7.760;2022-09-27T03:21:34;3.22;;;1.80;;
30020;SDS011;16861;52.294;7.760;2022-09-27T03:24:01;4.00;;;1.67;;
30020;SDS011;16861;52.294;7.760;2022-09-27T03:26:28;4.07;;;1.48;;
30020;SDS011;16861;52.294;7.760;2022-09-27T03:28:55;3.25;;;1.55;;
30020;SDS011;16861;52.294;7.760;2022-09-27T03:31:21;4.38;;;1.60;;
30020;SDS011;16861;52.294;7.760;2022-09-27T03:33:48;3.78;;;1.23;;
30020;SDS011;16861;52.294;7.760;2022-09-27T03:36:14;3.47;;;1.77;;
30020;SDS011;16861;52.294;7.760;2022-09-27T03:38:41;6.15;;;1.52;;
30020;SDS011;16861;52.294;7.760;2022-09-27T03:41:07;4.78;;;1.67;;
30020;SDS011;16861;52.294;7.760;2022-09-27T03:43:34;5.07;;;1.52;;
30020;SDS011;16861;52.294;7.760;2022-09-27T03:46:01;3.08;;;2.00;;
30020;SDS011;16861;52.294;7.760;2022-09-27T03:48:27;3.72;;;1.50;;
30020;SDS011;16861;52.294;7.760;2022-09-27T03:50:56;3.70;;;1.77;;
30020;SDS011;16861;52.294;7.760;2022-09-27T03:53:22;3.90;;;1.65;;
30020;SDS011;16861;52.294;7.760;2022-09-27T03:55:49;7.22;;;1.67;;
30020;SDS011;16861;52.294;7.760;2022-09-27T03:58:16;2.90;;;1.27;;
30020;SDS011;16861;52.294;7.760;2022-09-27T04:00:44;2.90;;;1.30;;
30020;SDS011;16861;52.294;7.760;2022-09-27T04:03:11;3.38;;;1.27;;
30020;SDS011;16861;52.294;7.760;2022-09-27T04:05:38;4.38;;;1.83;;
30020;SDS011;16861;52.294;7.760;2022-09-27T04:08:05;3.40;;;1.25;;
30020;SDS011;16861;52.294;7.760;2022-09-27T04:10:33;3.88;;;1.40;;
30020;SDS011;16861;52.294;7.760;2022-09-27T04:12:59;3.53;;;1.90;;
30020;SDS011;16861;52.294;7.760;2022-09-27T04:15:26;3.58;;;1.83;;
30020;SDS011;16861;52.294;7.760;2022-09-27T04:17:52;1.88;;;1.48;;
30020;SDS011;16861;52.294;7.760;2022-09-27T04:20:19;3.80;;;1.30;;
30020;SDS011;16861;52.294;7.760;2022-09-27T04:22:45;3.42;;;1.20;;
30020;SDS011;16861;52.294;7.760;2022-09-27T04:25:12;5.47;;;1.23;;
30020;SDS011;16861;52.294;7.760;2022-09-27T04:27:42;2.92;;;1.77;;
30020;SDS011;16861;52.294;7.760;2022-09-27T04:30:11;3.13;;;1.05;;
30020;SDS011;16861;52.294;7.760;2022-09-27T04:32:42;4.03;;;0.95;;
30020;SDS011;16861;52.294;7.760;2022-09-27T04:35:10;1.58;;;1.00;;
30020;SDS011;16861;52.294;7.760;2022-09-27T04:37:56;2.97;;;1.27;;
30020;SDS011;16861;52.294;7.760;2022-09-27T04:40:23;4.75;;;1.17;;
30020;SDS011;16861;52.294;7.760;2022-09-27T04:42:50;5.22;;;1.40;;
30020;SDS011;16861;52.294;7.760;2022-09-27T04:45:17;2.90;;;1.63;;
30020;SDS011;16861;52.294;7.760;2022-09-27T04:47:45;5.82;;;1.25;;
30020;SDS011;16861;52.294;7.760;2022-09-27T04:50:15;3.20;;;1.70;;
30020;SDS011;16861;52.294;7.760;2022-09-27T04:52:43;5.13;;;2.30;;
30020;SDS011;16861;52.294;7.760;2022-09-27T04:55:10;3.25;;;1.50;;
30020;SDS011;16861;52.294;7.760;2022-09-27T04:57:36;3.25;;;1.30;;
30020;SDS011;16861;52.294;7.760;2022-09-27T05:00:03;2.50;;;1.13;;
30020;SDS011;16861;52.294;7.760;2022-09-27T05:02:30;3.42;;;1.20;;
30020;SDS011;16861;52.294;7.760;2022-09-27T05:04:57;2.40;;;1.45;;
30020;SDS011;16861;52.294;7.760;2022-09-27T05:07:24;4.05;;;1.30;;
30020;SDS011;16861;52.294;7.760;2022-09-27T05:09:52;4.15;;;1.50;;
30020;SDS011;16861;52.294;7.760;2022-09-27T05:12:19;4.05;;;1.30;;
30020;SDS011;16861;52.294;7.760;2022-09-27T05:14:46;4.78;;;1.30;;
30020;SDS011;16861;52.294;7.760;2022-09-27T05:17:13;2.95;;;1.13;;
30020;SDS011;16861;52.294;7.760;2022-09-27T05:19:39;5.07;;;1.90;;
30020;SDS011;16861;52.294;7.760;2022-09-27T05:22:06;4.78;;;1.77;;
30020;SDS011;16861;52.294;7.760;2022-09-27T05:24:33;6.05;;;1.33;;
30020;SDS011;16861;52.294;7.760;2022-09-27T05:27:00;3.97;;;1.30;;
30020;SDS011;16861;52.294;7.760;2022-09-27T05:29:27;4.18;;;1.23;;
30020;SDS011;16861;52.294;7.760;2022-09-27T05:31:54;3.47;;;1.20;;
30020;SDS011;16861;52.294;7.760;2022-09-27T05:34:20;4.63;;;0.88;;
30020;SDS011;16861;52.294;7.760;2022-09-27T05:36:47;3.45;;;1.00;;
30020;SDS011;16861;52.294;7.760;2022-09-27T05:39:15;6.65;;;1.08;;
30020;SDS011;16861;52.294;7.760;2022-09-27T05:41:42;1.00;;;0.70;;
30020;SDS011;16861;52.294;7.760;2022-09-27T05:44:09;2.00;;;0.82;;
30020;SDS011;16861;52.294;7.760;2022-09-27T05:46:35;5.25;;;1.30;;
30020;SDS011;16861;52.294;7.760;2022-09-27T05:49:04;6.32;;;0.82;;
30020;SDS011;16861;52.294;7.760;2022-09-27T05:51:31;2.30;;;0.75;;
30020;SDS011;16861;52.294;7.760;2022-09-27T05:53:57;3.30;;;0.80;;
30020;SDS011;16861;52.294;7.760;2022-09-27T05:56:24;4.78;;;0.80;;
30020;SDS011;16861;52.294;7.760;2022-09-27T05:58:51;2.80;;;0.82;;
30020;SDS011;16861;52.294;7.760;2022-09-27T06:01:18;3.90;;;0.80;;
30020;SDS011;16861;52.294;7.760;2022-09-27T06:03:44;3.83;;;1.00;;
30020;SDS011;16861;52.294;7.760;2022-09-27T06:06:12;3.10;;;1.13;;
30020;SDS011;16861;52.294;7.760;2022-09-27T06:08:40;1.75;;;0.82;;
30020;SDS011;16861;52.294;7.760;2022-09-27T06:11:08;3.03;;;1.00;;
30020;SDS011;16861;52.294;7.760;2022-09-27T06:13:38;3.47;;;1.40;;
30020;SDS011;16861;52.294;7.760;2022-09-27T06:16:05;2.50;;;1.10;;
30020;SDS011;16861;52.294;7.760;2022-09-27T06:18:32;5.15;;;0.95;;
30020;SDS011;16861;52.294;7.760;2022-09-27T06:21:00;2.03;;;1.42;;
30020;SDS011;16861;52.294;7.760;2022-09-27T06:23:27;1.75;;;1.40;;
30020;SDS011;16861;52.294;7.760;2022-09-27T06:26:01;4.03;;;1.10;;
30020;SDS011;16861;52.294;7.760;2022-09-27T06:28:30;1.65;;;0.93;;
30020;SDS011;16861;52.294;7.760;2022-09-27T06:30:57;3.28;;;1.20;;
30020;SDS011;16861;52.294;7.760;2022-09-27T06:33:27;3.28;;;1.20;;
30020;SDS011;16861;52.294;7.760;2022-09-27T06:35:54;4.95;;;1.25;;
30020;SDS011;16861;52.294;7.760;2022-09-27T06:38:20;5.22;;;1.30;;
30020;SDS011;16861;52.294;7.760;2022-09-27T06:40:48;3.22;;;1.10;;
30020;SDS011;16861;52.294;7.760;2022-09-27T06:43:16;4.20;;;1.40;;
30020;SDS011;16861;52.294;7.760;2022-09-27T06:45:45;4.25;;;1.80;;
30020;SDS011;16861;52.294;7.760;2022-09-27T06:48:13;7.25;;;1.25;;
30020;SDS011;16861;52.294;7.760;2022-09-27T06:50:41;2.55;;;1.50;;
30020;SDS011;16861;52.294;7.760;2022-09-27T06:53:10;1.92;;;0.93;;
30020;SDS011;16861;52.294;7.760;2022-09-27T06:55:38;8.13;;;1.45;;
30020;SDS011;16861;52.294;7.760;2022-09-27T06:58:06;2.17;;;1.15;;
30020;SDS011;16861;52.294;7.760;2022-09-27T07:00:54;4.10;;;1.15;;
30020;SDS011;16861;52.294;7.760;2022-09-27T07:03:21;4.75;;;1.17;;
30020;SDS011;16861;52.294;7.760;2022-09-27T07:05:55;3.05;;;1.40;;
30020;SDS011;16861;52.294;7.760;2022-09-27T07:08:24;7.70;;;1.10;;
30020;SDS011;16861;52.294;7.760;2022-09-27T07:10:54;1.90;;;1.20;;
30020;SDS011;16861;52.294;7.760;2022-09-27T07:13:26;2.13;;;1.00;;
30020;SDS011;16861;52.294;7.760;2022-09-27T07:15:54;4.15;;;1.10;;
30020;SDS011;16861;52.294;7.760;2022-09-27T07:18:21;3.75;;;1.27;;
30020;SDS011;16861;52.294;7.760;2022-09-27T07:20:47;4.00;;;1.15;;
30020;SDS011;16861;52.294;7.760;2022-09-27T07:23:15;5.80;;;1.15;;
30020;SDS011;16861;52.294;7.760;2022-09-27T07:25:42;5.80;;;1.10;;
30020;SDS011;16861;52.294;7.760;2022-09-27T07:28:12;6.10;;;1.40;;
30020;SDS011;16861;52.294;7.760;2022-09-27T07:30:47;5.80;;;1.33;;
30020;SDS011;16861;52.294;7.760;2022-09-27T07:33:14;3.92;;;1.33;;
30020;SDS011;16861;52.294;7.760;2022-09-27T07:35:40;5.20;;;1.10;;
30020;SDS011;16861;52.294;7.760;2022-09-27T07:38:09;2.50;;;0.90;;
30020;SDS011;16861;52.294;7.760;2022-09-27T07:40:43;3.55;;;1.15;;
30020;SDS011;16861;52.294;7.760;2022-09-27T07:43:10;2.83;;;1.00;;
30020;SDS011;16861;52.294;7.760;2022-09-27T07:45:37;8.95;;;1.27;;
30020;SDS011;16861;52.294;7.760;2022-09-27T07:48:05;6.55;;;1.10;;
30020;SDS011;16861;52.294;7.760;2022-09-27T07:50:32;4.28;;;1.20;;
30020;SDS011;16861;52.294;7.760;2022-09-27T07:52:59;3.47;;;1.08;;
30020;SDS011;16861;52.294;7.760;2022-09-27T07:55:26;3.83;;;1.02;;
30020;SDS011;16861;52.294;7.760;2022-09-27T07:58:00;4.28;;;1.05;;
30020;SDS011;16861;52.294;7.760;2022-09-27T08:00:28;3.45;;;1.08;;
30020;SDS011;16861;52.294;7.760;2022-09-27T08:02:55;2.25;;;0.90;;
30020;SDS011;16861;52.294;7.760;2022-09-27T08:05:22;8.85;;;1.10;;
30020;SDS011;16861;52.294;7.760;2022-09-27T08:07:52;5.00;;;1.63;;
30020;SDS011;16861;52.294;7.760;2022-09-27T08:10:20;1.75;;;0.88;;
30020;SDS011;16861;52.294;7.760;2022-09-27T08:12:47;2.65;;;0.82;;
30020;SDS011;16861;52.294;7.760;2022-09-27T08:15:13;3.83;;;1.05;;
30020;SDS011;16861;52.294;7.760;2022-09-27T08:17:40;3.05;;;0.95;;
30020;SDS011;16861;52.294;7.760;2022-09-27T08:20:07;3.15;;;0.75;;
30020;SDS011;16861;52.294;7.760;2022-09-27T08:22:38;4.47;;;0.93;;
30020;SDS011;16861;52.294;7.760;2022-09-27T08:25:06;3.10;;;0.90;;
30020;SDS011;16861;52.294;7.760;2022-09-27T08:27:33;3.95;;;1.40;;
30020;SDS011;16861;52.294;7.760;2022-09-27T08:29:59;6.57;;;1.20;;
30020;SDS011;16861;52.294;7.760;2022-09-27T08:32:26;4.00;;;1.20;;
30020;SDS011;16861;52.294;7.760;2022-09-27T08:34:53;5.78;;;0.80;;
30020;SDS011;16861;52.294;7.760;2022-09-27T08:37:20;4.93;;;1.17;;
30020;SDS011;16861;52.294;7.760;2022-09-27T08:39:46;2.03;;;0.80;;
30020;SDS011;16861;52.294;7.760;2022-09-27T08:55:51;4.20;;;0.90;;
30020;SDS011;16861;52.294;7.760;2022-09-27T09:00:54;3.30;;;1.20;;
30020;SDS011;16861;52.294;7.760;2022-09-27T09:05:59;3.33;;;0.82;;
30020;SDS011;16861;52.294;7.760;2022-09-27T09:08:32;3.78;;;0.80;;
30020;SDS011;16861;52.294;7.760;2022-09-27T09:14:29;2.28;;;0.70;;
30020;SDS011;16861;52.294;7.760;2022-09-27T09:20:09;3.70;;;1.00;;
30020;SDS011;16861;52.294;7.760;2022-09-27T09:25:47;3.92;;;0.82;;
30020;SDS011;16861;52.294;7.760;2022-09-27T09:34:00;3.25;;;0.90;;
30020;SDS011;16861;52.294;7.760;2022-09-27T09:36:43;3.20;;;1.20;;
30020;SDS011;16861;52.294;7.760;2022-09-27T09:42:36;2.78;;;0.90;;
30020;SDS011;16861;52.294;7.760;2022-09-27T09:45:16;5.25;;;1.00;;
30020;SDS011;16861;52.294;7.760;2022-09-27T09:47:48;1.33;;;0.75;;
30020;SDS011;16861;52.294;7.760;2022-09-27T09:50:26;2.78;;;1.00;;
30020;SDS011;16861;52.294;7.760;2022-09-27T09:53:01;1.85;;;0.80;;
30020;SDS011;16861;52.294;7.760;2022-09-27T09:55:56;4.05;;;0.75;;
30020;SDS011;16861;52.294;7.760;2022-09-27T10:01:13;3.53;;;0.90;;
30020;SDS011;16861;52.294;7.760;2022-09-27T10:03:45;9.00;;;1.23;;
30020;SDS011;16861;52.294;7.760;2022-09-27T10:06:12;3.85;;;0.88;;
30020;SDS011;16861;52.294;7.760;2022-09-27T10:08:41;2.65;;;1.00;;
30020;SDS011;16861;52.294;7.760;2022-09-27T10:11:12;3.33;;;1.05;;
30020;SDS011;16861;52.294;7.760;2022-09-27T10:13:45;3.28;;;1.00;;
30020;SDS011;16861;52.294;7.760;2022-09-27T10:16:13;2.65;;;0.80;;
30020;SDS011;16861;52.294;7.760;2022-09-27T10:18:42;2.97;;;1.00;;
30020;SDS011;16861;52.294;7.760;2022-09-27T10:21:21;2.42;;;0.70;;
30020;SDS011;16861;52.294;7.760;2022-09-27T10:24:12;6.35;;;0.85;;
30020;SDS011;16861;52.294;7.760;2022-09-27T10:26:44;2.85;;;0.80;;
30020;SDS011;16861;52.294;7.760;2022-09-27T10:31:46;4.03;;;1.10;;
30020;SDS011;16861;52.294;7.760;2022-09-27T10:36:47;4.55;;;0.90;;
30020;SDS011;16861;52.294;7.760;2022-09-27T10:39:27;3.47;;;0.70;;
30020;SDS011;16861;52.294;7.760;2022-09-27T10:41:54;1.88;;;0.73;;
30020;SDS011;16861;52.294;7.760;2022-09-27T10:44:28;1.92;;;0.93;;
30020;SDS011;16861;52.294;7.760;2022-09-27T10:46:59;3.35;;;1.10;;
30020;SDS011;16861;52.294;7.760;2022-09-27T10:49:36;1.58;;;0.60;;
30020;SDS011;16861;52.294;7.760;2022-09-27T10:52:06;3.30;;;1.10;;
30020;SDS011;16861;52.294;7.760;2022-09-27T10:54:41;5.28;;;0.90;;
30020;SDS011;16861;52.294;7.760;2022-09-27T10:57:17;2.90;;;0.70;;
30020;SDS011;16861;52.294;7.760;2022-09-27T10:59:50;2.53;;;0.77;;
30020;SDS011;16861;52.294;7.760;2022-09-27T11:02:25;2.10;;;0.68;;
30020;SDS011;16861;52.294;7.760;2022-09-27T11:05:02;2.33;;;0.80;;
30020;SDS011;16861;52.294;7.760;2022-09-27T11:07:51;2.05;;;0.63;;
30020;SDS011;16861;52.294;7.760;2022-09-27T11:10:28;2.10;;;0.70;;
30020;SDS011;16861;52.294;7.760;2022-09-27T11:13:16;2.38;;;0.80;;
30020;SDS011;16861;52.294;7.760;2022-09-27T11:32:18;1.70;;;0.63;;
30020;SDS011;16861;52.294;7.760;2022-09-27T11:35:22;1.67;;;0.63;;
30020;SDS011;16861;52.294;7.760;2022-09-27T11:38:37;0.55;;;0.50;;
30020;SDS011;16861;52.294;7.760;2022-09-27T11:49:52;3.08;;;0.80;;
30020;SDS011;16861;52.294;7.760;2022-09-27T11:52:50;4.32;;;0.60;;
30020;SDS011;16861;52.294;7.760;2022-09-27T12:16:52;1.05;;;0.50;;
30020;SDS011;16861;52.294;7.760;2022-09-27T12:21:56;2.00;;;0.40;;
30020;SDS011;16861;52.294;7.760;2022-09-27T12:24:26;0.90;;;0.40;;
30020;SDS011;16861;52.294;7.760;2022-09-27T12:26:54;1.00;;;0.45;;
30020;SDS011;16861;52.294;7.760;2022-09-27T12:34:44;1.05;;;0.40;;
30020;SDS011;16861;52.294;7.760;2022-09-27T12:37:22;1.00;;;0.30;;
30020;SDS011;16861;52.294;7.760;2022-09-27T12:39:57;0.68;;;0.32;;
30020;SDS011;16861;52.294;7.760;2022-09-27T12:42:33;0.82;;;0.50;;
30020;SDS011;16861;52.294;7.760;2022-09-27T12:45:04;1.23;;;0.40;;
30020;SDS011;16861;52.294;7.760;2022-09-27T12:47:49;0.63;;;0.30;;
30020;SDS011;16861;52.294;7.760;2022-09-27T12:51:06;0.73;;;0.45;;
30020;SDS011;16861;52.294;7.760;2022-09-27T12:56:45;3.15;;;0.50;;
30020;SDS011;16861;52.294;7.760;2022-09-27T13:05:36;1.15;;;0.65;;
30020;SDS011;16861;52.294;7.760;2022-09-27T13:11:07;2.70;;;0.60;;
30020;SDS011;16861;52.294;7.760;2022-09-27T13:16:19;1.70;;;0.43;;
30020;SDS011;16861;52.294;7.760;2022-09-27T13:18:53;0.85;;;0.60;;
30020;SDS011;16861;52.294;7.760;2022-09-27T13:26:56;1.55;;;0.57;;
30020;SDS011;16861;52.294;7.760;2022-09-27T13:29:27;0.57;;;0.47;;
30020;SDS011;16861;52.294;7.760;2022-09-27T13:34:37;2.42;;;0.65;;
30020;SDS011;16861;52.294;7.760;2022-09-27T13:43:09;1.30;;;0.35;;
30020;SDS011;16861;52.294;7.760;2022-09-27T13:45:52;0.88;;;0.28;;
30020;SDS011;16861;52.294;7.760;2022-09-27T13:51:03;0.32;;;0.20;;
30020;SDS011;16861;52.294;7.760;2022-09-27T13:53:39;0.45;;;0.30;;
30020;SDS011;16861;52.294;7.760;2022-09-27T13:56:45;0.50;;;0.30;;
30020;SDS011;16861;52.294;7.760;2022-09-27T13:59:18;0.52;;;0.28;;
30020;SDS011;16861;52.294;7.760;2022-09-27T14:01:48;1.13;;;0.50;;
30020;SDS011;16861;52.294;7.760;2022-09-27T14:04:22;0.83;;;0.40;;
30020;SDS011;16861;52.294;7.760;2022-09-27T14:06:57;1.38;;;0.32;;
30020;SDS011;16861;52.294;7.760;2022-09-27T14:09:29;1.35;;;0.40;;
30020;SDS011;16861;52.294;7.760;2022-09-27T14:11:59;0.55;;;0.35;;
30020;SDS011;16861;52.294;7.760;2022-09-27T14:14:30;0.38;;;0.38;;
30020;SDS011;16861;52.294;7.760;2022-09-27T14:16:58;2.08;;;0.60;;
30020;SDS011;16861;52.294;7.760;2022-09-27T14:19:26;2.03;;;0.40;;
30020;SDS011;16861;52.294;7.760;2022-09-27T14:21:54;0.40;;;0.38;;
30020;SDS011;16861;52.294;7.760;2022-09-27T14:24:31;1.70;;;0.70;;
30020;SDS011;16861;52.294;7.760;2022-09-27T14:30:12;2.50;;;0.80;;
30020;SDS011;16861;52.294;7.760;2022-09-27T14:32:47;1.20;;;0.50;;
30020;SDS011;16861;52.294;7.760;2022-09-27T14:38:03;1.88;;;1.02;;
30020;SDS011;16861;52.294;7.760;2022-09-27T14:43:23;2.72;;;1.05;;
30020;SDS011;16861;52.294;7.760;2022-09-27T14:45:51;1.73;;;0.90;;
30020;SDS011;16861;52.294;7.760;2022-09-27T14:50:58;1.45;;;0.90;;
30020;SDS011;16861;52.294;7.760;2022-09-27T14:53:34;2.25;;;0.68;;
30020;SDS011;16861;52.294;7.760;2022-09-27T14:56:06;1.02;;;0.70;;
30020;SDS011;16861;52.294;7.760;2022-09-27T14:58:41;1.55;;;0.77;;
30020;SDS011;16861;52.294;7.760;2022-09-27T15:01:14;2.72;;;0.77;;
30020;SDS011;16861;52.294;7.760;2022-09-27T15:03:42;1.45;;;0.80;;
30020;SDS011;16861;52.294;7.760;2022-09-27T15:06:10;1.65;;;1.00;;
30020;SDS011;16861;52.294;7.760;2022-09-27T15:08:38;2.28;;;1.00;;
30020;SDS011;16861;52.294;7.760;2022-09-27T15:11:05;3.03;;;0.90;;
30020;SDS011;16861;52.294;7.760;2022-09-27T15:13:33;1.55;;;0.70;;
30020;SDS011;16861;52.294;7.760;2022-09-27T15:16:07;1.60;;;0.60;;
30020;SDS011;16861;52.294;7.760;2022-09-27T15:21:02;1.95;;;0.70;;
30020;SDS011;16861;52.294;7.760;2022-09-27T15:23:34;2.17;;;0.77;;
30020;SDS011;16861;52.294;7.760;2022-09-27T15:28:35;1.92;;;0.68;;
30020;SDS011;16861;52.294;7.760;2022-09-27T15:31:04;1.58;;;0.68;;
30020;SDS011;16861;52.294;7.760;2022-09-27T15:33:33;2.40;;;0.60;;
30020;SDS011;16861;52.294;7.760;2022-09-27T15:36:02;2.17;;;0.70;;
30020;SDS011;16861;52.294;7.760;2022-09-27T15:38:34;1.85;;;0.60;;
30020;SDS011;16861;52.294;7.760;2022-09-27T15:41:13;1.33;;;0.50;;
30020;SDS011;16861;52.294;7.760;2022-09-27T15:43:47;2.25;;;0.60;;
30020;SDS011;16861;52.294;7.760;2022-09-27T15:51:43;1.45;;;0.57;;
30020;SDS011;16861;52.294;7.760;2022-09-27T15:54:11;1.33;;;0.70;;
30020;SDS011;16861;52.294;7.760;2022-09-27T15:56:38;1.23;;;0.80;;
30020;SDS011;16861;52.294;7.760;2022-09-27T15:59:05;2.08;;;0.65;;
30020;SDS011;16861;52.294;7.760;2022-09-27T16:01:39;4.47;;;1.00;;
30020;SDS011;16861;52.294;7.760;2022-09-27T16:04:07;2.22;;;1.00;;
30020;SDS011;16861;52.294;7.760;2022-09-27T16:06:34;1.27;;;0.70;;
30020;SDS011;16861;52.294;7.760;2022-09-27T16:09:00;0.88;;;0.63;;
30020;SDS011;16861;52.294;7.760;2022-09-27T16:11:27;1.55;;;0.60;;
30020;SDS011;16861;52.294;7.760;2022-09-27T16:13:53;2.10;;;1.02;;
30020;SDS011;16861;52.294;7.760;2022-09-27T16:16:20;1.58;;;0.85;;
30020;SDS011;16861;52.294;7.760;2022-09-27T16:18:48;1.75;;;0.80;;
30020;SDS011;16861;52.294;7.760;2022-09-27T16:21:14;3.03;;;0.90;;
30020;SDS011;16861;52.294;7.760;2022-09-27T16:23:41;2.45;;;1.10;;
30020;SDS011;16861;52.294;7.760;2022-09-27T16:26:08;1.35;;;0.70;;
30020;SDS011;16861;52.294;7.760;2022-09-27T16:28:34;3.05;;;1.00;;
30020;SDS011;16861;52.294;7.760;2022-09-27T16:31:02;1.95;;;0.95;;
30020;SDS011;16861;52.294;7.760;2022-09-27T16:33:30;2.72;;;0.90;;
30020;SDS011;16861;52.294;7.760;2022-09-27T16:35:58;2.67;;;1.00;;
30020;SDS011;16861;52.294;7.760;2022-09-27T16:38:27;3.08;;;1.15;;
30020;SDS011;16861;52.294;7.760;2022-09-27T16:40:59;2.58;;;0.85;;
30020;SDS011;16861;52.294;7.760;2022-09-27T16:43:27;1.85;;;0.95;;
30020;SDS011;16861;52.294;7.760;2022-09-27T16:46:02;5.43;;;1.05;;
30020;SDS011;16861;52.294;7.760;2022-09-27T16:48:29;2.60;;;1.00;;
30020;SDS011;16861;52.294;7.760;2022-09-27T16:51:01;4.15;;;1.13;;
30020;SDS011;16861;52.294;7.760;2022-09-27T16:53:50;3.85;;;1.08;;
30020;SDS011;16861;52.294;7.760;2022-09-27T16:56:17;7.65;;;1.23;;
30020;SDS011;16861;52.294;7.760;2022-09-27T16:58:45;1.95;;;1.08;;
30020;SDS011;16861;52.294;7.760;2022-09-27T17:01:13;2.10;;;0.90;;
30020;SDS011;16861;52.294;7.760;2022-09-27T17:03:42;3.45;;;1.00;;
30020;SDS011;16861;52.294;7.760;2022-09-27T17:06:10;2.33;;;1.00;;
30020;SDS011;16861;52.294;7.760;2022-09-27T17:08:37;5.03;;;1.30;;
30020;SDS011;16861;52.294;7.760;2022-09-27T17:11:03;2.55;;;1.20;;
30020;SDS011;16861;52.294;7.760;2022-09-27T17:13:31;1.83;;;1.20;;
30020;SDS011;16861;52.294;7.760;2022-09-27T17:16:02;3.97;;;1.13;;
30020;SDS011;16861;52.294;7.760;2022-09-27T17:18:29;2.50;;;1.52;;
30020;SDS011;16861;52.294;7.760;2022-09-27T17:20:59;1.38;;;1.10;;
30020;SDS011;16861;52.294;7.760;2022-09-27T17:23:29;3.50;;;1.45;;
30020;SDS011;16861;52.294;7.760;2022-09-27T17:28:30;1.40;;;0.70;;
30020;SDS011;16861;52.294;7.760;2022-09-27T17:31:00;1.75;;;1.00;;
30020;SDS011;16861;52.294;7.760;2022-09-27T17:33:35;2.42;;;1.00;;
30020;SDS011;16861;52.294;7.760;2022-09-27T17:36:11;1.33;;;0.90;;
30020;SDS011;16861;52.294;7.760;2022-09-27T17:38:42;3.40;;;1.30;;
30020;SDS011;16861;52.294;7.760;2022-09-27T17:41:11;3.00;;;1.10;;
30020;SDS011;16861;52.294;7.760;2022-09-27T17:43:40;2.08;;;1.10;;
30020;SDS011;16861;52.294;7.760;2022-09-27T17:46:16;1.15;;;1.05;;
30020;SDS011;16861;52.294;7.760;2022-09-27T17:48:44;3.33;;;1.25;;
30020;SDS011;16861;52.294;7.760;2022-09-27T17:51:30;2.35;;;1.20;;
30020;SDS011;16861;52.294;7.760;2022-09-27T17:53:58;1.65;;;1.20;;
30020;SDS011;16861;52.294;7.760;2022-09-27T17:56:25;2.70;;;1.00;;
30020;SDS011;16861;52.294;7.760;2022-09-27T17:58:53;2.70;;;1.15;;
30020;SDS011;16861;52.294;7.760;2022-09-27T18:01:22;2.08;;;1.08;;
30020;SDS011;16861;52.294;7.760;2022-09-27T18:03:56;2.60;;;1.02;;
30020;SDS011;16861;52.294;7.760;2022-09-27T18:06:26;3.00;;;1.13;;
30020;SDS011;16861;52.294;7.760;2022-09-27T18:08:53;9.30;;;2.95;;
30020;SDS011;16861;52.294;7.760;2022-09-27T18:11:23;7.80;;;2.97;;
30020;SDS011;16861;52.294;7.760;2022-09-27T18:13:54;8.55;;;3.13;;
30020;SDS011;16861;52.294;7.760;2022-09-27T18:16:23;6.60;;;2.72;;
30020;SDS011;16861;52.294;7.760;2022-09-27T18:18:55;6.05;;;2.50;;
30020;SDS011;16861;52.294;7.760;2022-09-27T18:21:23;3.75;;;1.88;;
30020;SDS011;16861;52.294;7.760;2022-09-27T18:23:53;3.20;;;1.63;;
30020;SDS011;16861;52.294;7.760;2022-09-27T18:26:22;3.30;;;1.88;;
30020;SDS011;16861;52.294;7.760;2022-09-27T18:28:53;2.03;;;1.40;;
30020;SDS011;16861;52.294;7.760;2022-09-27T18:31:21;2.58;;;1.17;;